Portada
METAR-TAF:

METAR-TAF

Aeropuertos :

Béchar, Argelia

latitud: 31-37N, longitud: 002-14W, altitud: 773 m

Observación

El informe se hizo hace 38 minutos, a las 14:00 UTC
Viento 6 kt del este-sureste
Temperatura 29°C
Humedad 11%
Presión 1011 hPa
Visibilidad 10 km o más
sin nubes por debajo de 1500 m y sin presencia de cumulonimbus.

METAR: DAOR 191400Z 11006KT CAVOK 29/M04 Q1011

Hora: 15:38 (14:38 UTC)

Pronóstico

El informe se hizo hace 3 horas y 38 minutos, a las 11:00 UTC
Pronóstico válido del 19 a las 12 UTC al 19 a las 21 UTC
Viento 8 kt del este-noreste
Visibilidad 10 km o más
sin nubes por debajo de 1500 m y sin presencia de cumulonimbus.

TAF: DAOR 191100Z 1912/1921 06008KT CAVOK

Observaciones y pronósticos meteorológicos de más de 4000 aeropuertos (mensajes METAR y TAF).

Los puntos amarillos y rojos representan las estaciones disponibles.

Ponga el ratón en el punto deseado para ver el nombre de la estación.

Haga clic para ver las observaciones y los pronósticos meteorológicos.

Para cambiar el mapa : haga clic en los botones verdes con una cruz de color negro para hacer un zoom, en el botón verde con un guión para alejar o en las flechas verdes para mapas adyacentes.


METAR-TAF: